^^
Paulen-Weather Station Historical Data
Daily Summary for May 02, 2022 Units:  English    Metric   Both
Daily Weekly Monthly Yearly Custom
  High: Low: Average:
Temperature: 55.4 °F 41 °F 48.6 °F
Dew Point: 50 °F 33.8 °F 41.2 °F
Humidity: 90% 54% 75%
Wind Speed: 16.2mph 1.2mph 6.8mph
Wind Gust: 12.4mph - -
Wind- - SE
Pressure: 30.1 in 29.9 in -
Precipitation: 0 in    
Historical Graphs
 
 
Tabular Data for May 02, 2022
Time Temperature Dew Point Pressure Wind Wind Speed Wind Gust Humidity Rainfall Rate (Hourly) solar
00:04 48.2 °F 39.2 °F 30.1 in NNW 2.5 mph 1.2 mph 73% 0 in 0 W/m2
00:09 48.2 °F 39.2 °F 30.1 in N 2.5 mph 1.9 mph 73% 0 in 0 W/m2
00:14 48.2 °F 39.2 °F 30.1 in NW 3.1 mph 1.2 mph 73% 0 in 0 W/m2
00:19 48.2 °F 39.2 °F 30.1 in NW 1.2 mph 0.6 mph 73% 0 in 0 W/m2
00:24 46.4 °F 39.2 °F 30.1 in NW 1.2 mph   73% 0 in 0 W/m2
00:29 46.4 °F 39.2 °F 30.1 in N 1.2 mph 1.2 mph 73% 0 in 0 W/m2
00:34 46.4 °F 39.2 °F 30.1 in NNE 2.5 mph 0.6 mph 73% 0 in 0 W/m2
00:39 46.4 °F 39.2 °F 30.1 in NNW 1.9 mph 1.2 mph 74% 0 in 0 W/m2
00:44 46.4 °F 39.2 °F 30.1 in NNE 3.1 mph 1.2 mph 74% 0 in 0 W/m2
00:49 46.4 °F 39.2 °F 30.1 in NNE 2.5 mph 1.2 mph 75% 0 in 0 W/m2
00:54 46.4 °F 39.2 °F 30.1 in NE 3.7 mph 3.1 mph 75% 0 in 0 W/m2
00:59 46.4 °F 39.2 °F 30.1 in NE 3.7 mph 3.1 mph 75% 0 in 0 W/m2
01:04 46.4 °F 39.2 °F 30.1 in NE 3.7 mph 2.5 mph 75% 0 in 0 W/m2
01:09 46.4 °F 39.2 °F 30.1 in NNE 3.1 mph 2.5 mph 75% 0 in 0 W/m2
01:14 46.4 °F 39.2 °F 30.1 in N 3.7 mph 1.9 mph 75% 0 in 0 W/m2
01:19 46.4 °F 39.2 °F 30.1 in NNE 3.1 mph 1.9 mph 75% 0 in 0 W/m2
01:24 46.4 °F 39.2 °F 30.1 in NE 3.1 mph 1.9 mph 75% 0 in 0 W/m2
01:29 46.4 °F 39.2 °F 30.1 in ENE 1.9 mph 0.6 mph 75% 0 in 0 W/m2
01:34 46.4 °F 39.2 °F 30.1 in NE 3.1 mph 1.9 mph 75% 0 in 0 W/m2
01:39 46.4 °F 37.4 °F 30.1 in NNE 3.1 mph 1.2 mph 75% 0 in 0 W/m2
01:44 46.4 °F 37.4 °F 30.1 in NE 4.3 mph 3.1 mph 75% 0 in 0 W/m2
01:49 44.6 °F 37.4 °F 30.1 in NNE 2.5 mph 1.2 mph 75% 0 in 0 W/m2
01:54 44.6 °F 37.4 °F 30.1 in NE 3.1 mph 1.2 mph 75% 0 in 0 W/m2
01:59 44.6 °F 37.4 °F 30.1 in NE 3.1 mph 1.2 mph 75% 0 in 0 W/m2
02:04 44.6 °F 37.4 °F 30.1 in NNE 3.7 mph 3.1 mph 75% 0 in 0 W/m2
02:09 44.6 °F 37.4 °F 30.1 in NE 6.2 mph 4.3 mph 75% 0 in 0 W/m2
02:14 44.6 °F 37.4 °F 30.1 in NNE 5.6 mph 3.1 mph 75% 0 in 0 W/m2
02:19 44.6 °F 37.4 °F 30.1 in NNE 7.5 mph 4.3 mph 74% 0 in 0 W/m2
02:24 44.6 °F 37.4 °F 30.1 in NNW 4.3 mph 3.7 mph 73% 0 in 0 W/m2
02:29 44.6 °F 35.6 °F 30.1 in NNW 2.5 mph 1.9 mph 73% 0 in 0 W/m2
02:34 44.6 °F 35.6 °F 30.1 in NNW 4.3 mph 3.1 mph 73% 0 in 0 W/m2
02:39 44.6 °F 35.6 °F 30.1 in NNW 4.3 mph 3.1 mph 73% 0 in 0 W/m2
02:44 44.6 °F 35.6 °F 30.1 in NNE 5.6 mph 4.3 mph 73% 0 in 0 W/m2
02:49 44.6 °F 35.6 °F 30.1 in N 6.8 mph 3.1 mph 73% 0 in 0 W/m2
02:54 44.6 °F 35.6 °F 30.1 in N 6.8 mph 5 mph 72% 0 in 0 W/m2
02:59 44.6 °F 35.6 °F 30.1 in NNW 6.8 mph 5 mph 72% 0 in 0 W/m2
03:04 44.6 °F 35.6 °F 30.1 in NNW 7.5 mph 4.3 mph 72% 0 in 0 W/m2
03:09 44.6 °F 35.6 °F 30.1 in NNW 6.2 mph 3.1 mph 73% 0 in 0 W/m2
03:14 42.8 °F 35.6 °F 30.1 in NNW 5.6 mph 3.1 mph 74% 0 in 0 W/m2
03:19 42.8 °F 35.6 °F 30.1 in NNW 5 mph 3.1 mph 74% 0 in 0 W/m2
03:24 42.8 °F 35.6 °F 30.1 in NNW 3.7 mph 1.9 mph 75% 0 in 0 W/m2
03:29 42.8 °F 35.6 °F 30.1 in NNW 4.3 mph 3.1 mph 75% 0 in 0 W/m2
03:34 42.8 °F 35.6 °F 30.1 in NNW 4.3 mph 3.7 mph 75% 0 in 0 W/m2
03:39 42.8 °F 35.6 °F 30.1 in NNW 5.6 mph 3.7 mph 76% 0 in 0 W/m2
03:44 42.8 °F 35.6 °F 30.1 in NNW 5.6 mph 3.1 mph 76% 0 in 0 W/m2
03:49 42.8 °F 35.6 °F 30.1 in NW 3.1 mph 1.9 mph 76% 0 in 0 W/m2
03:54 42.8 °F 35.6 °F 30.1 in NNW 3.7 mph 2.5 mph 76% 0 in 0 W/m2
03:59 42.8 °F 35.6 °F 30.1 in NNW 3.7 mph 3.1 mph 77% 0 in 0 W/m2
04:04 42.8 °F 35.6 °F 30.1 in NNW 4.3 mph 3.7 mph 77% 0 in 0 W/m2
04:09 42.8 °F 35.6 °F 30.1 in NNW 3.1 mph 1.9 mph 77% 0 in 0 W/m2
04:14 42.8 °F 35.6 °F 30.1 in NW 3.1 mph 1.9 mph 77% 0 in 0 W/m2
04:19 42.8 °F 35.6 °F 30.1 in NW 2.5 mph 1.2 mph 77% 0 in 0 W/m2
04:24 42.8 °F 35.6 °F 30.1 in NW 2.5 mph 0.6 mph 77% 0 in 0 W/m2
04:29 42.8 °F 35.6 °F 30.1 in NW 1.9 mph 1.2 mph 77% 0 in 0 W/m2
04:34 42.8 °F 35.6 °F 30.1 in NW 2.5 mph 1.2 mph 77% 0 in 0 W/m2
04:39 42.8 °F 35.6 °F 30.1 in NW 1.2 mph   77% 0 in 0 W/m2
04:44 42.8 °F 35.6 °F 30.1 in NW 1.2 mph 1.9 mph 77% 0 in 0 W/m2
04:49 42.8 °F 35.6 °F 30.1 in NNW 2.5 mph 1.2 mph 77% 0 in 0 W/m2
04:54 42.8 °F 35.6 °F 30.1 in NNW 3.1 mph 1.9 mph 78% 0 in 0 W/m2
04:59 42.8 °F 35.6 °F 30.1 in NNW 1.9 mph 0.6 mph 78% 0 in 0 W/m2
05:04 41 °F 35.6 °F 30.1 in NNW 2.5 mph 1.9 mph 78% 0 in 0 W/m2
05:09 41 °F 35.6 °F 30.1 in NNW 2.5 mph 1.2 mph 79% 0 in 0 W/m2
05:14 41 °F 35.6 °F 30.1 in NNW 3.7 mph 2.5 mph 79% 0 in 0 W/m2
05:19 41 °F 35.6 °F 30.1 in NNW 1.2 mph 1.9 mph 79% 0 in 0 W/m2
05:24 41 °F 35.6 °F 30.1 in NNW 3.7 mph 1.9 mph 79% 0 in 0 W/m2
05:29 41 °F 35.6 °F 30.1 in N 3.1 mph 1.9 mph 79% 0 in 0 W/m2
05:34 41 °F 35.6 °F 30.1 in NNW 3.1 mph 1.9 mph 79% 0 in 5 W/m2
05:39 41 °F 35.6 °F 30.1 in NNW 2.5 mph 1.9 mph 78% 0 in 7 W/m2
05:44 41 °F 35.6 °F 30.1 in NNW 2.5 mph 1.2 mph 78% 0 in 11 W/m2
05:49 41 °F 35.6 °F 30.1 in N 3.7 mph 1.9 mph 77% 0 in 12 W/m2
05:54 41 °F 35.6 °F 30.1 in N 3.1 mph 1.9 mph 76% 0 in 16 W/m2
05:59 41 °F 35.6 °F 30.1 in NNW 4.3 mph 2.5 mph 76% 0 in 19 W/m2
06:04 41 °F 33.8 °F 30.1 in N 2.5 mph 1.9 mph 75% 0 in 33 W/m2
06:09 41 °F 33.8 °F 30.1 in N 3.7 mph 1.9 mph 74% 0 in 40 W/m2
06:14 42.8 °F 33.8 °F 30.1 in N 3.7 mph 2.5 mph 74% 0 in 54 W/m2
06:19 42.8 °F 33.8 °F 30.1 in N 2.5 mph 1.9 mph 74% 0 in 60 W/m2
06:24 42.8 °F 35.6 °F 30.1 in N 2.5 mph 1.2 mph 74% 0 in 70 W/m2
06:29 42.8 °F 35.6 °F 30.1 in NNW 4.3 mph 3.1 mph 74% 0 in 83 W/m2
06:34 42.8 °F 35.6 °F 30.1 in NNW 3.7 mph 2.5 mph 74% 0 in 91 W/m2
06:39 42.8 °F 35.6 °F 30.1 in NNW 3.7 mph 3.1 mph 73% 0 in 98 W/m2
06:44 42.8 °F 35.6 °F 30.1 in N 3.7 mph 2.5 mph 72% 0 in 109 W/m2
06:49 44.6 °F 35.6 °F 30.1 in N 4.3 mph 3.1 mph 71% 0 in 120 W/m2
06:54 44.6 °F 35.6 °F 30.1 in NNW 3.7 mph 3.1 mph 70% 0 in 128 W/m2
06:59 44.6 °F 35.6 °F 30.1 in NNW 1.9 mph 1.9 mph 69% 0 in 141 W/m2
07:04 44.6 °F 35.6 °F 30.1 in N 1.9 mph 1.9 mph 68% 0 in 148 W/m2
07:09 44.6 °F 35.6 °F 30.1 in N 3.1 mph 1.2 mph 66% 0 in 158 W/m2
07:14 46.4 °F 35.6 °F 30.1 in NW 3.7 mph 2.5 mph 65% 0 in 211 W/m2
07:19 46.4 °F 35.6 °F 30.1 in NNW 3.1 mph 2.5 mph 65% 0 in 216 W/m2
07:24 46.4 °F 33.8 °F 30.1 in NE 5 mph 3.1 mph 63% 0 in 207 W/m2
07:29 46.4 °F 33.8 °F 30.1 in NNE 4.3 mph 3.1 mph 62% 0 in 104 W/m2
07:34 46.4 °F 33.8 °F 30.1 in N 4.3 mph 2.5 mph 62% 0 in 104 W/m2
07:39 46.4 °F 33.8 °F 30.1 in NNW 3.7 mph 2.5 mph 62% 0 in 105 W/m2
07:44 46.4 °F 33.8 °F 30.1 in N 4.3 mph 2.5 mph 63% 0 in 97 W/m2
07:49 46.4 °F 33.8 °F 30.1 in N 2.5 mph 1.9 mph 62% 0 in 77 W/m2
07:54 46.4 °F 33.8 °F 30.1 in NNE 5 mph 4.3 mph 62% 0 in 70 W/m2
07:59 46.4 °F 33.8 °F 30.1 in N 3.7 mph 1.9 mph 61% 0 in 70 W/m2
08:04 46.4 °F 33.8 °F 30.1 in NNE 5 mph 3.1 mph 61% 0 in 72 W/m2
08:09 46.4 °F 33.8 °F 30.1 in NNE 5 mph 3.7 mph 60% 0 in 72 W/m2
08:14 46.4 °F 33.8 °F 30.1 in NNE 4.3 mph 2.5 mph 60% 0 in 63 W/m2
08:19 46.4 °F 33.8 °F 30.1 in N 6.8 mph 3.7 mph 60% 0 in 53 W/m2
08:24 46.4 °F 33.8 °F 30.1 in NNE 6.8 mph 5 mph 60% 0 in 54 W/m2
08:29 46.4 °F 33.8 °F 30.1 in N 6.8 mph 5.6 mph 60% 0 in 56 W/m2
08:34 46.4 °F 33.8 °F 30.1 in NNW 6.2 mph 3.7 mph 60% 0 in 56 W/m2
08:39 46.4 °F 33.8 °F 30.1 in NNE 4.3 mph 3.7 mph 59% 0 in 63 W/m2
08:44 46.4 °F 33.8 °F 30.1 in N 5.6 mph 3.7 mph 59% 0 in 76 W/m2
08:49 46.4 °F 33.8 °F 30.1 in N 6.2 mph 4.3 mph 59% 0 in 76 W/m2
08:54 46.4 °F 33.8 °F 30.1 in NNW 4.3 mph 3.7 mph 60% 0 in 70 W/m2
08:59 46.4 °F 33.8 °F 30.1 in NNE 4.3 mph 2.5 mph 61% 0 in 65 W/m2
09:04 46.4 °F 33.8 °F 30.1 in NNE 5.6 mph 5 mph 61% 0 in 67 W/m2
09:09 46.4 °F 33.8 °F 30.1 in N 5 mph 5.6 mph 61% 0 in 70 W/m2
09:14 46.4 °F 33.8 °F 30.1 in NNW 3.1 mph 2.5 mph 61% 0 in 72 W/m2
09:19 46.4 °F 33.8 °F 30.1 in NNW 4.3 mph 2.5 mph 61% 0 in 86 W/m2
09:24 46.4 °F 33.8 °F 30.1 in N 4.3 mph 3.1 mph 59% 0 in 90 W/m2
09:29 46.4 °F 33.8 °F 30.1 in NNE 3.1 mph 3.1 mph 60% 0 in 459 W/m2
09:34 48.2 °F 35.6 °F 30.1 in NNE 5 mph 4.3 mph 59% 0 in 475 W/m2
09:39 50 °F 35.6 °F 30.1 in N 6.8 mph 5 mph 57% 0 in 515 W/m2
09:44 50 °F 35.6 °F 30.1 in N 9.9 mph 7.5 mph 55% 0 in 520 W/m2
09:49 50 °F 35.6 °F 30.1 in NNE 9.3 mph 6.2 mph 54% 0 in 397 W/m2
09:54 50 °F 35.6 °F 30.1 in N 10.6 mph 5.6 mph 55% 0 in 406 W/m2
09:59 50 °F 35.6 °F 30.1 in NNE 9.3 mph 6.8 mph 56% 0 in 422 W/m2
10:04 51.8 °F 37.4 °F 30.1 in NNE 9.9 mph 6.2 mph 58% 0 in 582 W/m2
10:09 51.8 °F 37.4 °F 30.1 in NNE 11.8 mph 7.5 mph 59% 0 in 582 W/m2
10:14 51.8 °F 37.4 °F 30.1 in N 12.4 mph 8.7 mph 61% 0 in 575 W/m2
10:19 51.8 °F 39.2 °F 30.1 in NNE 8.1 mph 4.3 mph 62% 0 in 584 W/m2
10:24 51.8 °F 39.2 °F 30 in N 11.2 mph 5.6 mph 63% 0 in 605 W/m2
10:29 51.8 °F 41 °F 30.1 in NNE 8.1 mph 5 mph 64% 0 in 561 W/m2
10:34 51.8 °F 41 °F 30.1 in N 9.9 mph 7.5 mph 66% 0 in 374 W/m2
10:39 51.8 °F 41 °F 30.1 in NNE 11.2 mph 6.8 mph 68% 0 in 399 W/m2
10:44 51.8 °F 42.8 °F 30 in NNE 8.7 mph 6.2 mph 69% 0 in 399 W/m2
10:49 51.8 °F 42.8 °F 30 in NNE 6.2 mph 3.7 mph 70% 0 in 341 W/m2
10:54 51.8 °F 42.8 °F 30 in NNE 9.3 mph 6.2 mph 70% 0 in 364 W/m2
10:59 51.8 °F 42.8 °F 30 in NNE 10.6 mph 6.8 mph 71% 0 in 364 W/m2
11:04 51.8 °F 42.8 °F 30 in NNE 11.2 mph 6.2 mph 71% 0 in 501 W/m2
11:09 51.8 °F 42.8 °F 30 in NNE 9.9 mph 6.2 mph 72% 0 in 534 W/m2
11:14 53.6 °F 44.6 °F 30 in NNE 9.9 mph 6.8 mph 72% 0 in 485 W/m2
11:19 51.8 °F 44.6 °F 30 in N 13.7 mph 9.3 mph 72% 0 in 364 W/m2
11:24 51.8 °F 44.6 °F 30 in NNW 14.9 mph 9.9 mph 73% 0 in 322 W/m2
11:29 51.8 °F 44.6 °F 30 in N 13 mph 8.7 mph 74% 0 in 392 W/m2
11:34 51.8 °F 44.6 °F 30 in N 13.7 mph 9.3 mph 75% 0 in 362 W/m2
11:39 51.8 °F 44.6 °F 30 in NNE 11.8 mph 8.1 mph 75% 0 in 831 W/m2
11:44 53.6 °F 44.6 °F 30 in N 9.9 mph 7.5 mph 75% 0 in 891 W/m2
11:49 53.6 °F 46.4 °F 30 in NE 8.7 mph 8.1 mph 73% 0 in 800 W/m2
11:54 53.6 °F 44.6 °F 30 in NE 13 mph 10.6 mph 73% 0 in 789 W/m2
11:59 53.6 °F 46.4 °F 30 in NNE 11.2 mph 7.5 mph 74% 0 in 898 W/m2
12:04 53.6 °F 46.4 °F 30 in NNE 10.6 mph 5.6 mph 74% 0 in 898 W/m2
12:09 55.4 °F 46.4 °F 30 in NNE 9.3 mph 6.2 mph 74% 0 in 902 W/m2
12:14 55.4 °F 46.4 °F 30 in NNE 13 mph 9.3 mph 73% 0 in 902 W/m2
12:19 55.4 °F 46.4 °F 30 in NNE 7.5 mph 6.8 mph 74% 0 in 819 W/m2
12:24 55.4 °F 46.4 °F 30 in NNE 11.2 mph 7.5 mph 74% 0 in 700 W/m2
12:29 53.6 °F 46.4 °F 30 in N 11.8 mph 8.1 mph 74% 0 in 664 W/m2
12:34 53.6 °F 46.4 °F 30 in NNE 9.9 mph 6.2 mph 76% 0 in 527 W/m2
12:39 53.6 °F 46.4 °F 30 in NE 13.7 mph 10.6 mph 77% 0 in 584 W/m2
12:44 51.8 °F 46.4 °F 30 in NE 11.8 mph 9.3 mph 79% 0 in 584 W/m2
12:49 51.8 °F 46.4 °F 30 in NE 11.2 mph 8.7 mph 81% 0 in 519 W/m2
12:54 51.8 °F 46.4 °F 30 in ENE 16.2 mph 12.4 mph 82% 0 in 432 W/m2
12:59 51.8 °F 46.4 °F 30 in NE 13.7 mph 11.2 mph 83% 0 in 432 W/m2
13:04 51.8 °F 46.4 °F 30 in NNE 9.9 mph 5.6 mph 84% 0 in 352 W/m2
13:09 51.8 °F 46.4 °F 30 in NE 9.9 mph 6.8 mph 84% 0 in 279 W/m2
13:14 51.8 °F 46.4 °F 30 in NE 8.7 mph 6.2 mph 85% 0 in 410 W/m2
13:19 51.8 °F 46.4 °F 30 in NNE 9.3 mph 6.2 mph 85% 0 in 320 W/m2
13:24 51.8 °F 46.4 °F 30 in NE 10.6 mph 8.7 mph 86% 0 in 265 W/m2
13:29 51.8 °F 46.4 °F 30 in NNE 11.2 mph 8.7 mph 87% 0 in 265 W/m2
13:34 50 °F 46.4 °F 30 in NNE 6.8 mph 8.7 mph 87% 0 in 193 W/m2
13:39 51.8 °F 48.2 °F 30 in NNE 8.1 mph 4.3 mph 87% 0 in 272 W/m2
13:44 51.8 °F 48.2 °F 30 in NNE 8.1 mph 5.6 mph 87% 0 in 285 W/m2
13:49 51.8 °F 48.2 °F 30 in NNE 8.7 mph 6.8 mph 87% 0 in 408 W/m2
13:54 51.8 °F 48.2 °F 30 in N 12.4 mph 7.5 mph 87% 0 in 385 W/m2
13:59 51.8 °F 48.2 °F 30 in N 9.9 mph 7.5 mph 86% 0 in 329 W/m2
14:04 51.8 °F 48.2 °F 30 in N 9.3 mph 6.8 mph 86% 0 in 320 W/m2
14:09 51.8 °F 48.2 °F 30 in NNE 10.6 mph 8.7 mph 86% 0 in 200 W/m2
14:14 51.8 °F 48.2 °F 30 in NNE 11.2 mph 7.5 mph 86% 0 in 190 W/m2
14:19 51.8 °F 48.2 °F 30 in NNE 11.8 mph 8.7 mph 87% 0 in 178 W/m2
14:24 50 °F 48.2 °F 30 in NNE 13.7 mph 9.9 mph 87% 0 in 162 W/m2
14:29 50 °F 48.2 °F 30 in NE 11.2 mph 8.1 mph 88% 0 in 171 W/m2
14:34 50 °F 48.2 °F 30 in NNE 10.6 mph 6.2 mph 89% 0 in 364 W/m2
14:39 51.8 °F 48.2 °F 30 in NNE 8.1 mph 6.8 mph 90% 0 in 497 W/m2
14:44 51.8 °F 48.2 °F 30 in N 8.1 mph 5.6 mph 90% 0 in 527 W/m2
14:49 51.8 °F 50 °F 30 in NNE 9.9 mph 6.8 mph 88% 0 in 548 W/m2
14:54 53.6 °F 50 °F 30 in N 5.6 mph 3.7 mph 87% 0 in 548 W/m2
14:59 53.6 °F 50 °F 30 in N 8.1 mph 6.8 mph 86% 0 in 394 W/m2
15:04 53.6 °F 50 °F 30 in NNE 9.9 mph 6.8 mph 86% 0 in 346 W/m2
15:09 53.6 °F 50 °F 30 in NNE 6.2 mph 4.3 mph 86% 0 in 490 W/m2
15:14 53.6 °F 50 °F 30 in N 9.3 mph 6.2 mph 85% 0 in 506 W/m2
15:19 53.6 °F 50 °F 30 in N 8.1 mph 3.1 mph 85% 0 in 547 W/m2
15:24 53.6 °F 50 °F 30 in N 10.6 mph 9.3 mph 83% 0 in 490 W/m2
15:29 53.6 °F 50 °F 30 in N 11.8 mph 7.5 mph 83% 0 in 475 W/m2
15:34 53.6 °F 50 °F 30 in N 10.6 mph 7.5 mph 83% 0 in 475 W/m2
15:39 53.6 °F 50 °F 30 in NNE 10.6 mph 8.7 mph 83% 0 in 429 W/m2
15:44 53.6 °F 48.2 °F 30 in N 16.2 mph 8.1 mph 83% 0 in 490 W/m2
15:49 53.6 °F 48.2 °F 30 in N 12.4 mph 8.1 mph 83% 0 in 490 W/m2
15:54 53.6 °F 50 °F 30 in NNE 8.7 mph 6.2 mph 82% 0 in 657 W/m2
15:59 53.6 °F 48.2 °F 30 in N 9.3 mph 5 mph 82% 0 in 657 W/m2
16:04 53.6 °F 48.2 °F 30 in NNE 9.3 mph 4.3 mph 82% 0 in 413 W/m2
16:09 53.6 °F 48.2 °F 30 in NE 11.2 mph 8.7 mph 82% 0 in 364 W/m2
16:14 53.6 °F 48.2 °F 30 in NNE 9.9 mph 6.2 mph 83% 0 in 364 W/m2
16:19 53.6 °F 48.2 °F 30 in NE 7.5 mph 6.2 mph 83% 0 in 279 W/m2
16:24 53.6 °F 48.2 °F 30 in NE 11.2 mph 8.1 mph 84% 0 in 279 W/m2
16:29 53.6 °F 48.2 °F 30 in NNE 8.1 mph 5.6 mph 84% 0 in 269 W/m2
16:34 53.6 °F 48.2 °F 30 in NNE 8.1 mph 5.6 mph 84% 0 in 315 W/m2
16:39 53.6 °F 48.2 °F 30 in NNE 9.9 mph 6.8 mph 84% 0 in 360 W/m2
16:44 53.6 °F 50 °F 29.9 in NNE 8.1 mph 3.7 mph 84% 0 in 374 W/m2
16:49 53.6 °F 50 °F 29.9 in NNE 9.3 mph 6.8 mph 83% 0 in 459 W/m2
16:54 53.6 °F 50 °F 29.9 in NE 9.3 mph 8.1 mph 83% 0 in 411 W/m2
16:59 53.6 °F 50 °F 29.9 in NE 8.7 mph 8.7 mph 83% 0 in 373 W/m2
17:04 53.6 °F 48.2 °F 29.9 in NNE 11.8 mph 9.9 mph 83% 0 in 318 W/m2
17:09 53.6 °F 48.2 °F 29.9 in NE 9.9 mph 8.7 mph 84% 0 in 315 W/m2
17:14 53.6 °F 48.2 °F 29.9 in NNE 10.6 mph 8.7 mph 84% 0 in 563 W/m2
17:19 53.6 °F 50 °F 29.9 in NE 9.9 mph 6.2 mph 85% 0 in 497 W/m2
17:24 53.6 °F 50 °F 29.9 in NNE 8.1 mph 6.2 mph 84% 0 in 283 W/m2
17:29 53.6 °F 48.2 °F 29.9 in NNE 11.2 mph 8.1 mph 84% 0 in 309 W/m2
17:34 53.6 °F 48.2 °F 29.9 in NE 12.4 mph 8.7 mph 84% 0 in 199 W/m2
17:39 51.8 °F 48.2 °F 29.9 in NE 9.9 mph 7.5 mph 85% 0 in 134 W/m2
17:44 51.8 °F 48.2 °F 29.9 in NE 9.9 mph 6.8 mph 85% 0 in 527 W/m2
17:49 53.6 °F 48.2 °F 29.9 in NE 9.3 mph 6.8 mph 85% 0 in 527 W/m2
17:54 53.6 °F 50 °F 29.9 in NE 7.5 mph 6.2 mph 84% 0 in 439 W/m2
17:59 53.6 °F 50 °F 29.9 in NNE 6.8 mph 5 mph 83% 0 in 397 W/m2
18:04 53.6 °F 48.2 °F 29.9 in NE 8.7 mph 5.6 mph 83% 0 in 424 W/m2
18:09 53.6 °F 50 °F 29.9 in N 6.2 mph 3.7 mph 83% 0 in 508 W/m2
18:14 55.4 °F 50 °F 29.9 in N 5 mph 3.1 mph 82% 0 in 508 W/m2
18:19 55.4 °F 50 °F 29.9 in N 6.8 mph 4.3 mph 81% 0 in 403 W/m2
18:24 55.4 °F 50 °F 29.9 in NE 9.9 mph 6.2 mph 80% 0 in 323 W/m2
18:29 53.6 °F 48.2 °F 29.9 in NNE 11.2 mph 8.1 mph 81% 0 in 188 W/m2
18:34 53.6 °F 48.2 °F 29.9 in NNE 8.7 mph 5.6 mph 82% 0 in 369 W/m2
18:39 53.6 °F 48.2 °F 29.9 in NE 8.7 mph 6.2 mph 83% 0 in 369 W/m2
18:44 53.6 °F 48.2 °F 29.9 in NE 8.7 mph 6.8 mph 83% 0 in 316 W/m2
18:49 53.6 °F 48.2 °F 29.9 in NNE 9.3 mph 6.8 mph 83% 0 in 315 W/m2
18:54 53.6 °F 48.2 °F 29.9 in NNE 6.2 mph 5 mph 83% 0 in 295 W/m2
Compliments of Weather Underground - 2 mb